Steele City, Nebraska
Current Conditions -  °F | °C
As of 11:35 PM on Wednesday 26 Nov 2014 (Local Time) from KBIE Reporting Station
Clear Clear  
Wind Chill:   Ceiling: Unl
Heat Index: 17°   Visibility: 10mi
Dew Point: 14°   Wind: 8mph
Humidity: 88%   Direction: 340°NNW
Pressure: 30.45"   Gusts: NA
Location:  40.04°N, 97.02°W
Report Text: KBIE 270535Z AUTO 34007KT 10SM CLR M08/M10 A3045 RMK AO2 T10831100
Loading
Personal Weather Stations






























Interactive Weather Map New forecast layout! Learn more

10-Day Weather Forecast

Advertisements
Track Severe Weather on mobile